Time;durP1;ratioP1;P1;durP2;ratioP2;P2;SDS_P1;SDS_P2;PMS_P1;PMS_P2;Temp;Humidity;BMP_temperature;BMP_pressure;BME280_temperature;BME280_humidity;BME280_pressure;Samples;Min_cycle;Max_cycle;Signal;HPM_P1;HPM_P2
2024/01/10 00:01:03;;;;;;;25.95;12.95;;;-2.60;99.90;;;;;;5094104;28;20228;-61
2024/01/10 00:03:31;;;;;;;24.77;12.02;;;-2.60;99.90;;;;;;5094420;28;20699;-61
2024/01/10 00:05:59;;;;;;;25.75;12.82;;;-2.60;99.90;;;;;;5093792;28;20197;-61
2024/01/10 00:08:26;;;;;;;26.95;13.05;;;-2.60;99.90;;;;;;5090256;28;20207;-60
2024/01/10 00:10:54;;;;;;;30.90;12.65;;;-2.60;99.90;;;;;;5089782;28;20253;-60
2024/01/10 00:13:22;;;;;;;28.35;13.45;;;-2.60;99.90;;;;;;5094342;28;20204;-61
2024/01/10 00:15:51;;;;;;;28.38;11.73;;;-2.60;99.90;;;;;;5092517;28;20224;-60
2024/01/10 00:18:19;;;;;;;26.98;13.05;;;-2.60;99.90;;;;;;5093741;28;20201;-61
2024/01/10 00:20:47;;;;;;;27.95;13.55;;;-2.70;99.90;;;;;;5093115;28;20614;-61
2024/01/10 00:23:15;;;;;;;27.95;14.25;;;-2.60;99.90;;;;;;5093700;28;20232;-59
2024/01/10 00:25:43;;;;;;;32.15;15.05;;;-2.70;99.90;;;;;;5093368;28;20215;-61
2024/01/10 00:28:11;;;;;;;28.15;12.85;;;-2.70;99.90;;;;;;5093909;28;20201;-60
2024/01/10 00:30:39;;;;;;;28.40;13.40;;;-2.70;99.90;;;;;;5093483;28;20259;-60
2024/01/10 00:33:08;;;;;;;25.38;12.98;;;-2.60;99.90;;;;;;5093896;28;20200;-61
2024/01/10 00:35:36;;;;;;;28.75;13.07;;;-2.60;99.90;;;;;;5093098;28;20635;-60
2024/01/10 00:38:04;;;;;;;28.73;13.68;;;-2.70;99.90;;;;;;5087932;28;20240;-60
2024/01/10 00:40:32;;;;;;;28.42;13.52;;;-2.70;99.90;;;;;;5092713;28;20319;-61
2024/01/10 00:43:00;;;;;;;26.30;13.25;;;-2.70;99.90;;;;;;5093846;28;20205;-61
2024/01/10 00:45:28;;;;;;;28.27;13.52;;;-2.70;99.90;;;;;;5093406;28;20200;-61
2024/01/10 00:47:56;;;;;;;28.25;13.77;;;-2.70;99.90;;;;;;5093664;28;20259;-61
2024/01/10 00:50:25;;;;;;;29.27;14.48;;;-2.70;99.90;;;;;;5092823;28;20216;-61
2024/01/10 00:52:53;;;;;;;36.83;14.95;;;-2.70;99.90;;;;;;5092915;28;20196;-61
2024/01/10 00:55:21;;;;;;;30.63;15.25;;;-2.70;99.90;;;;;;5093357;28;20207;-61
2024/01/10 00:57:49;;;;;;;35.20;14.70;;;-2.80;99.90;;;;;;5093348;28;20201;-60
2024/01/10 01:00:17;;;;;;;31.45;14.23;;;-2.80;99.90;;;;;;5092731;28;20250;-60
2024/01/10 01:02:45;;;;;;;26.35;14.05;;;-2.80;99.90;;;;;;5092813;28;20324;-60
2024/01/10 01:05:13;;;;;;;32.95;15.05;;;-2.80;99.90;;;;;;5093210;28;20197;-60
2024/01/10 01:07:43;;;;;;;30.67;14.93;;;-2.80;99.90;;;;;;5093100;28;20216;-61
2024/01/10 01:10:11;;;;;;;31.20;15.05;;;-2.80;99.90;;;;;;5092656;28;20224;-61
2024/01/10 01:12:39;;;;;;;30.85;14.55;;;-2.80;99.90;;;;;;5092758;28;20269;-60
2024/01/10 01:15:08;;;;;;;34.08;15.68;;;-2.80;99.90;;;;;;5092779;28;20236;-60
2024/01/10 01:17:35;;;;;;;39.80;14.38;;;-2.80;99.90;;;;;;5090218;28;20205;-60
2024/01/10 01:20:04;;;;;;;33.22;14.73;;;-2.80;99.90;;;;;;5091386;28;20221;-61
2024/01/10 01:22:32;;;;;;;30.60;14.98;;;-2.80;99.90;;;;;;5092498;28;20302;-61
2024/01/10 01:25:02;;;;;;;38.00;15.63;;;-2.80;99.90;;;;;;5092396;28;20222;-60
2024/01/10 01:27:30;;;;;;;30.90;14.85;;;-2.80;99.90;;;;;;5092635;28;20572;-60
2024/01/10 01:29:58;;;;;;;31.90;15.57;;;-2.90;99.90;;;;;;5091864;28;20254;-60
2024/01/10 01:32:26;;;;;;;33.90;15.27;;;-2.90;99.90;;;;;;5092729;28;20234;-60
2024/01/10 01:34:54;;;;;;;34.97;15.90;;;-2.90;99.90;;;;;;5092387;28;20299;-60
2024/01/10 01:37:22;;;;;;;34.50;15.10;;;-2.90;99.90;;;;;;5092144;28;20212;-61
2024/01/10 01:39:49;;;;;;;29.40;15.20;;;-2.90;99.90;;;;;;5091962;28;20228;-61
2024/01/10 01:42:19;;;;;;;33.13;15.27;;;-3.00;99.90;;;;;;5092518;28;20216;-61
2024/01/10 01:44:46;;;;;;;35.13;15.07;;;-3.00;99.90;;;;;;5092016;28;20289;-61
2024/01/10 01:47:14;;;;;;;36.00;15.45;;;-3.00;99.90;;;;;;5091823;28;20719;-60
2024/01/10 01:49:43;;;;;;;31.13;14.93;;;-3.00;99.90;;;;;;5091935;28;20231;-60
2024/01/10 01:52:11;;;;;;;38.20;16.70;;;-2.90;99.90;;;;;;5092070;28;20289;-60
2024/01/10 01:54:39;;;;;;;33.60;15.65;;;-3.00;99.90;;;;;;5092128;28;20238;-60
2024/01/10 01:57:06;;;;;;;35.83;15.07;;;-3.00;99.90;;;;;;5091973;28;20287;-60
2024/01/10 01:59:36;;;;;;;32.17;15.68;;;-3.00;99.90;;;;;;5091686;28;20256;-60
2024/01/10 02:02:04;;;;;;;34.63;15.80;;;-3.00;99.90;;;;;;5091792;28;20679;-61
2024/01/10 02:04:32;;;;;;;37.17;16.27;;;-3.10;99.90;;;;;;5091931;28;20208;-61
2024/01/10 02:07:00;;;;;;;33.28;15.20;;;-3.10;99.90;;;;;;5091896;28;20204;-58
2024/01/10 02:09:28;;;;;;;38.67;16.75;;;-3.10;99.90;;;;;;5091584;28;20278;-58
2024/01/10 02:11:56;;;;;;;35.25;16.30;;;-3.10;99.90;;;;;;5091596;28;20684;-59
2024/01/10 02:14:24;;;;;;;34.28;15.98;;;-3.10;99.90;;;;;;5091733;28;20235;-57
2024/01/10 02:16:54;;;;;;;36.08;17.08;;;-3.10;99.90;;;;;;5091925;28;20295;-60
2024/01/10 02:19:26;;;;;;;32.28;15.95;;;-3.00;99.90;;;;;;5091178;28;20322;-58
2024/01/10 02:21:55;;;;;;;31.40;15.98;;;-3.00;99.90;;;;;;5091621;28;20270;-59
2024/01/10 02:24:23;;;;;;;35.03;15.45;;;-3.00;99.90;;;;;;5091297;28;20630;-59
2024/01/10 02:26:53;;;;;;;35.17;16.20;;;-3.00;99.90;;;;;;5084228;28;20200;-60
2024/01/10 02:29:20;;;;;;;35.55;16.25;;;-3.00;99.90;;;;;;5091427;28;20701;-58
2024/01/10 02:31:48;;;;;;;35.33;16.83;;;-3.00;99.90;;;;;;5091585;28;20208;-57
2024/01/10 02:34:16;;;;;;;33.55;15.52;;;-3.00;99.90;;;;;;5091327;28;20204;-58
2024/01/10 02:36:45;;;;;;;35.47;16.35;;;-3.00;99.90;;;;;;5091104;28;20661;-58
2024/01/10 02:39:13;;;;;;;38.67;16.98;;;-3.10;99.90;;;;;;5091285;28;20719;-59
2024/01/10 02:41:41;;;;;;;38.10;15.98;;;-3.10;99.90;;;;;;5087723;28;20201;-61
2024/01/10 02:44:10;;;;;;;35.72;16.73;;;-3.10;99.90;;;;;;5089179;28;20208;-58
2024/01/10 02:46:38;;;;;;;33.83;16.33;;;-3.10;99.90;;;;;;5090933;28;20657;-58
2024/01/10 02:49:06;;;;;;;36.95;16.38;;;-3.10;99.90;;;;;;5091392;28;20235;-58
2024/01/10 02:51:34;;;;;;;37.63;16.35;;;-3.10;99.90;;;;;;5088200;28;20216;-59
2024/01/10 02:54:02;;;;;;;32.05;15.98;;;-3.20;99.90;;;;;;5091176;28;20196;-59
2024/01/10 02:56:30;;;;;;;35.08;16.40;;;-3.20;99.90;;;;;;5090940;28;20289;-59
2024/01/10 02:58:57;;;;;;;38.20;16.33;;;-3.20;99.90;;;;;;5091156;28;20247;-59
2024/01/10 03:01:27;;;;;;;36.67;16.13;;;-3.20;99.90;;;;;;5094648;28;20208;-60
2024/01/10 03:03:55;;;;;;;36.05;16.08;;;-3.20;99.90;;;;;;5095209;28;20277;-60
2024/01/10 03:06:22;;;;;;;36.00;15.93;;;-3.20;99.90;;;;;;5095073;28;20284;-57
2024/01/10 03:08:50;;;;;;;36.10;16.55;;;-3.20;99.90;;;;;;5092336;28;20254;-59
2024/01/10 03:11:18;;;;;;;44.33;18.05;;;-3.30;99.90;;;;;;5092207;28;20205;-59
2024/01/10 03:13:47;;;;;;;38.40;16.88;;;-3.30;99.90;;;;;;5094943;28;20262;-60
2024/01/10 03:16:15;;;;;;;37.55;16.70;;;-3.30;99.90;;;;;;5094819;28;20204;-59
2024/01/10 03:18:44;;;;;;;40.60;16.92;;;-3.30;99.90;;;;;;5094303;28;20228;-60
2024/01/10 03:21:12;;;;;;;36.53;16.45;;;-3.30;99.90;;;;;;5094827;28;20215;-61
2024/01/10 03:23:40;;;;;;;40.53;16.45;;;-3.30;99.90;;;;;;5094928;28;20289;-58
2024/01/10 03:26:08;;;;;;;38.88;16.02;;;-3.30;99.90;;;;;;5094582;28;20659;-59
2024/01/10 03:28:36;;;;;;;41.00;17.27;;;-3.30;99.90;;;;;;5094705;28;20205;-57
2024/01/10 03:31:04;;;;;;;34.78;16.77;;;-3.30;99.90;;;;;;5094609;28;20208;-59
2024/01/10 03:33:32;;;;;;;34.47;16.40;;;-3.30;99.90;;;;;;5094825;28;20250;-59
2024/01/10 03:36:01;;;;;;;32.35;16.30;;;-3.30;99.90;;;;;;5094108;28;20913;-59
2024/01/10 03:38:29;;;;;;;36.05;16.52;;;-3.30;99.90;;;;;;5094290;28;20201;-58
2024/01/10 03:40:57;;;;;;;33.28;16.17;;;-3.30;99.90;;;;;;5094629;28;20289;-58
2024/01/10 03:43:25;;;;;;;33.45;16.77;;;-3.30;99.90;;;;;;5094501;28;20225;-58
2024/01/10 03:45:53;;;;;;;36.72;16.88;;;-3.30;99.90;;;;;;5094408;28;20197;-59
2024/01/10 03:48:21;;;;;;;37.47;17.00;;;-3.30;99.90;;;;;;5090411;28;20205;-59
2024/01/10 03:50:49;;;;;;;38.25;16.33;;;-3.30;99.90;;;;;;5094214;28;20739;-59
2024/01/10 03:53:18;;;;;;;38.70;17.42;;;-3.20;99.90;;;;;;5094441;28;20242;-58
2024/01/10 03:55:46;;;;;;;36.40;15.60;;;-3.20;99.90;;;;;;5094045;28;20205;-58
2024/01/10 03:58:14;;;;;;;40.83;16.60;;;-3.30;99.90;;;;;;5094310;28;20634;-58
2024/01/10 04:00:42;;;;;;;39.97;16.85;;;-3.30;99.90;;;;;;5088901;28;20232;-59
2024/01/10 04:03:10;;;;;;;40.50;16.90;;;-3.30;99.90;;;;;;5087721;28;20690;-58
2024/01/10 04:05:38;;;;;;;40.17;17.17;;;-3.30;99.90;;;;;;5093736;28;20208;-59
2024/01/10 04:08:07;;;;;;;36.88;16.38;;;-3.30;99.90;;;;;;5094013;28;20208;-60
2024/01/10 04:10:37;;;;;;;37.35;16.77;;;-3.30;99.90;;;;;;5092903;28;20224;-58
2024/01/10 04:13:05;;;;;;;33.13;15.65;;;-3.30;99.90;;;;;;5093504;28;20201;-59
2024/01/10 04:15:34;;;;;;;38.58;17.90;;;-3.30;99.90;;;;;;5093436;28;20295;-58
2024/01/10 04:18:02;;;;;;;39.30;18.05;;;-3.30;99.90;;;;;;5094165;28;20584;-59
2024/01/10 04:20:30;;;;;;;36.67;16.90;;;-3.30;99.90;;;;;;5093200;28;20251;-59
2024/01/10 04:22:59;;;;;;;33.35;16.38;;;-3.30;99.90;;;;;;5093752;28;20217;-58
2024/01/10 04:25:27;;;;;;;36.92;17.20;;;-3.30;99.90;;;;;;5093310;28;20201;-57
2024/01/10 04:27:57;;;;;;;40.78;18.73;;;-3.30;99.90;;;;;;5093490;28;20209;-59
2024/01/10 04:30:24;;;;;;;38.47;18.20;;;-3.30;99.90;;;;;;5093504;28;20283;-60
2024/01/10 04:32:53;;;;;;;39.38;17.35;;;-3.30;99.90;;;;;;5093891;28;20597;-58
2024/01/10 04:35:21;;;;;;;40.63;18.15;;;-3.30;99.90;;;;;;5093218;28;20557;-59
2024/01/10 04:37:49;;;;;;;36.22;17.17;;;-3.30;99.90;;;;;;5093490;28;20583;-59
2024/01/10 04:40:17;;;;;;;45.45;18.38;;;-3.20;99.90;;;;;;5092978;28;20267;-59
2024/01/10 04:42:45;;;;;;;40.47;17.70;;;-3.20;99.90;;;;;;5093426;28;20205;-59
2024/01/10 04:45:14;;;;;;;36.88;17.90;;;-3.20;99.90;;;;;;5093240;28;20203;-58
2024/01/10 04:47:42;;;;;;;37.60;17.80;;;-3.20;99.90;;;;;;5092829;28;20201;-58
2024/01/10 04:50:10;;;;;;;40.03;18.23;;;-3.20;99.90;;;;;;5091259;28;20308;-58
2024/01/10 04:52:41;;;;;;;37.60;17.90;;;-3.20;99.90;;;;;;5091060;28;20208;-59
2024/01/10 04:55:10;;;;;;;38.10;17.13;;;-3.30;99.90;;;;;;5092806;28;20733;-59
2024/01/10 04:57:38;;;;;;;40.25;17.15;;;-3.30;99.90;;;;;;5091822;28;20204;-59
2024/01/10 05:00:07;;;;;;;40.42;17.27;;;-3.30;99.90;;;;;;5092687;28;20216;-57
2024/01/10 05:02:36;;;;;;;32.88;16.40;;;-3.30;99.90;;;;;;5091903;28;20201;-59
2024/01/10 05:05:05;;;;;;;39.38;16.75;;;-3.30;99.90;;;;;;5092667;28;20225;-59
2024/01/10 05:07:33;;;;;;;36.35;17.67;;;-3.30;99.90;;;;;;5091789;28;20200;-59
2024/01/10 05:10:01;;;;;;;40.95;17.63;;;-3.30;99.90;;;;;;5089637;28;20328;-59
2024/01/10 05:12:29;;;;;;;37.33;17.25;;;-3.30;99.90;;;;;;5089203;28;20205;-58
2024/01/10 05:14:57;;;;;;;39.70;16.60;;;-3.30;99.90;;;;;;5092773;28;20228;-57
2024/01/10 05:17:25;;;;;;;41.25;17.45;;;-3.30;99.90;;;;;;5090657;28;20254;-59
2024/01/10 05:19:54;;;;;;;36.45;16.77;;;-3.30;99.90;;;;;;5090973;28;20229;-60
2024/01/10 05:22:22;;;;;;;37.65;17.52;;;-3.30;99.90;;;;;;5092570;28;20214;-58
2024/01/10 05:24:50;;;;;;;37.45;17.70;;;-3.30;99.90;;;;;;5092107;28;20349;-57
2024/01/10 05:27:18;;;;;;;37.25;18.00;;;-3.30;99.90;;;;;;5092414;28;20201;-59
2024/01/10 05:29:47;;;;;;;42.95;18.42;;;-3.30;99.90;;;;;;5090315;28;20271;-58
2024/01/10 05:32:15;;;;;;;36.33;17.67;;;-3.30;99.90;;;;;;5091054;28;20250;-57
2024/01/10 05:34:43;;;;;;;36.63;17.15;;;-3.30;99.90;;;;;;5085529;28;20211;-59
2024/01/10 05:37:12;;;;;;;39.17;17.95;;;-3.30;99.90;;;;;;5085125;28;20207;-59
2024/01/10 05:39:40;;;;;;;45.92;18.48;;;-3.30;99.90;;;;;;5085020;28;20224;-60
2024/01/10 05:42:08;;;;;;;37.90;16.85;;;-3.30;99.90;;;;;;5084801;28;20281;-59
2024/01/10 05:44:36;;;;;;;36.92;17.95;;;-3.30;99.90;;;;;;5088851;28;20650;-60
2024/01/10 05:47:04;;;;;;;38.47;17.60;;;-3.30;99.90;;;;;;5090920;28;20209;-59
2024/01/10 05:49:32;;;;;;;45.85;18.17;;;-3.40;99.90;;;;;;5091270;28;20233;-59
2024/01/10 05:52:01;;;;;;;42.00;19.40;;;-3.30;99.90;;;;;;5083997;28;20215;-58
2024/01/10 05:54:30;;;;;;;43.35;17.05;;;-3.40;99.90;;;;;;5091995;28;20224;-57
2024/01/10 05:56:58;;;;;;;37.30;17.77;;;-3.40;99.90;;;;;;5091605;28;20200;-61
2024/01/10 05:59:26;;;;;;;42.55;18.00;;;-3.40;99.90;;;;;;5090414;28;20221;-59
2024/01/10 06:01:56;;;;;;;42.13;18.27;;;-3.40;99.90;;;;;;5090000;28;20262;-61
2024/01/10 06:04:24;;;;;;;38.08;17.05;;;-3.40;99.90;;;;;;5091531;28;20634;-60
2024/01/10 06:06:52;;;;;;;38.00;18.13;;;-3.40;99.90;;;;;;5091361;28;20258;-61
2024/01/10 06:09:21;;;;;;;43.63;18.33;;;-3.40;99.90;;;;;;5091110;28;20228;-60
2024/01/10 06:11:51;;;;;;;42.72;18.30;;;-3.40;99.90;;;;;;5091104;28;20677;-60
2024/01/10 06:14:19;;;;;;;41.17;18.42;;;-3.40;99.90;;;;;;5086531;28;20208;-61
2024/01/10 06:16:47;;;;;;;39.47;17.30;;;-3.40;99.90;;;;;;5091140;28;20204;-61
2024/01/10 06:19:15;;;;;;;39.25;17.98;;;-3.50;99.90;;;;;;5091190;28;20231;-60
2024/01/10 06:21:43;;;;;;;42.53;18.08;;;-3.50;99.90;;;;;;5090759;28;20677;-61
2024/01/10 06:24:11;;;;;;;42.30;19.40;;;-3.50;99.90;;;;;;5090012;28;20760;-61
2024/01/10 06:26:39;;;;;;;39.95;17.58;;;-3.50;99.90;;;;;;5084144;28;20623;-60
2024/01/10 06:29:08;;;;;;;39.80;18.42;;;-3.50;99.90;;;;;;5085072;28;20273;-60
2024/01/10 06:31:36;;;;;;;36.22;17.73;;;-3.50;99.90;;;;;;5091206;28;20208;-61
2024/01/10 06:34:04;;;;;;;41.55;18.23;;;-3.50;99.90;;;;;;5090758;28;20203;-67
2024/01/10 06:36:32;;;;;;;43.67;18.52;;;-3.50;99.90;;;;;;5090933;28;20209;-61
2024/01/10 06:39:00;;;;;;;40.65;18.17;;;-3.50;99.90;;;;;;5090939;28;20227;-61
2024/01/10 06:41:28;;;;;;;41.58;18.35;;;-3.50;99.90;;;;;;5088424;28;20291;-61
2024/01/10 06:43:56;;;;;;;37.65;18.05;;;-3.50;99.90;;;;;;5090903;28;20211;-62
2024/01/10 06:46:25;;;;;;;47.17;19.60;;;-3.50;99.90;;;;;;5091068;28;20204;-61
2024/01/10 06:48:53;;;;;;;39.45;18.48;;;-3.50;99.90;;;;;;5088681;28;20256;-60
2024/01/10 06:51:21;;;;;;;37.92;17.77;;;-3.50;99.90;;;;;;5090899;28;20594;-60
2024/01/10 06:53:49;;;;;;;38.72;19.20;;;-3.40;99.90;;;;;;5090935;28;20232;-61
2024/01/10 06:56:17;;;;;;;44.25;18.90;;;-3.40;99.90;;;;;;5087236;28;20210;-60
2024/01/10 06:58:45;;;;;;;37.40;17.13;;;-3.40;99.90;;;;;;5084348;28;20232;-61
2024/01/10 07:01:13;;;;;;;38.83;17.17;;;-3.40;99.90;;;;;;5086509;28;20218;-61
2024/01/10 07:03:45;;;;;;;36.97;18.38;;;-3.40;99.90;;;;;;5085514;28;20269;-62
2024/01/10 07:06:14;;;;;;;39.63;18.23;;;-3.40;99.90;;;;;;5083271;28;20717;-62
2024/01/10 07:08:44;;;;;;;41.97;18.58;;;-3.40;99.90;;;;;;5088248;28;20319;-61
2024/01/10 07:11:12;;;;;;;38.38;18.38;;;-3.30;99.90;;;;;;5089383;28;20727;-61
2024/01/10 07:13:41;;;;;;;36.47;17.23;;;-3.30;99.90;;;;;;5088378;28;20216;-61
2024/01/10 07:16:09;;;;;;;39.67;18.08;;;-3.30;99.90;;;;;;5079991;28;20211;-61
2024/01/10 07:18:37;;;;;;;42.97;18.77;;;-3.30;99.90;;;;;;5088198;28;20208;-61
2024/01/10 07:21:06;;;;;;;37.45;17.98;;;-3.30;99.90;;;;;;5080471;28;20205;-61
2024/01/10 07:23:35;;;;;;;27.80;13.07;;;-3.30;99.90;;;;;;5090247;28;20286;-60
2024/01/10 07:26:02;;;;;;;33.65;15.25;;;0.50;99.90;;;;;;5090252;28;20315;-60
2024/01/10 07:28:32;;;;;;;31.42;16.52;;;1.10;99.90;;;;;;5089512;28;20295;-60
2024/01/10 07:31:02;;;;;;;36.60;16.40;;;3.90;99.90;;;;;;5089313;28;20213;-60
2024/01/10 07:33:30;;;;;;;30.42;15.82;;;5.70;99.90;;;;;;5089926;28;20288;-60
2024/01/10 07:35:58;;;;;;;30.80;16.50;;;7.00;99.90;;;;;;5090354;28;20246;-60
2024/01/10 07:38:27;;;;;;;35.15;17.95;;;7.60;99.90;;;;;;5086888;28;21369;-60
2024/01/10 07:40:55;;;;;;;36.25;19.40;;;8.10;99.90;;;;;;5086902;28;20213;-62
2024/01/10 07:43:23;;;;;;;37.72;19.33;;;8.00;99.90;;;;;;5078002;28;20201;-61
2024/01/10 07:45:52;;;;;;;39.17;20.58;;;6.90;98.90;;;;;;5090599;28;20281;-62
2024/01/10 07:48:21;;;;;;;37.95;20.02;;;5.40;98.00;;;;;;5094353;28;20743;-62
2024/01/10 07:50:49;;;;;;;40.47;21.15;;;3.90;99.60;;;;;;5094387;28;20212;-62
2024/01/10 07:53:17;;;;;;;38.75;19.85;;;2.60;99.90;;;;;;5094714;28;20197;-62
2024/01/10 07:55:46;;;;;;;37.45;19.83;;;1.60;99.90;;;;;;5094466;28;20232;-62
2024/01/10 07:58:15;;;;;;;43.58;21.40;;;0.80;99.90;;;;;;5094164;28;20200;-62
2024/01/10 08:00:45;;;;;;;35.45;19.75;;;0.20;99.90;;;;;;5094329;28;20228;-62
2024/01/10 08:03:13;;;;;;;40.22;19.63;;;-0.30;99.90;;;;;;5094545;28;20287;-62
2024/01/10 08:05:41;;;;;;;43.42;19.48;;;-0.70;99.90;;;;;;5094297;28;20232;-62
2024/01/10 08:08:09;;;;;;;40.70;19.35;;;-1.00;99.90;;;;;;5086464;28;20208;-62
2024/01/10 08:10:37;;;;;;;44.03;19.75;;;-1.20;99.90;;;;;;5093932;28;20247;-63
2024/01/10 08:13:08;;;;;;;37.95;18.60;;;-1.40;99.90;;;;;;5094265;28;20212;-62
2024/01/10 08:15:36;;;;;;;36.05;18.40;;;-1.50;99.90;;;;;;5094104;28;20628;-62
2024/01/10 08:18:04;;;;;;;37.20;19.20;;;-1.70;99.90;;;;;;5094365;28;20208;-61
2024/01/10 08:20:32;;;;;;;43.10;19.60;;;-1.80;99.90;;;;;;5093804;28;20236;-62
2024/01/10 08:23:00;;;;;;;45.83;19.92;;;-1.80;99.90;;;;;;5094145;28;20255;-62
2024/01/10 08:25:29;;;;;;;42.47;20.02;;;-1.90;99.90;;;;;;5093626;28;20231;-61
2024/01/10 08:27:57;;;;;;;39.78;19.25;;;-1.90;99.90;;;;;;5093913;28;20288;-62
2024/01/10 08:30:27;;;;;;;43.35;18.92;;;-1.90;99.90;;;;;;5090394;28;20733;-61
2024/01/10 08:32:55;;;;;;;40.38;19.17;;;-1.90;99.90;;;;;;5090299;28;20208;-61
2024/01/10 08:35:23;;;;;;;42.30;18.38;;;-1.90;99.90;;;;;;5088143;28;20200;-62
2024/01/10 08:37:55;;;;;;;42.00;19.17;;;-1.90;99.90;;;;;;5091862;28;20210;-61
2024/01/10 08:40:25;;;;;;;44.17;19.60;;;-1.90;99.90;;;;;;5090262;28;20669;-62
2024/01/10 08:42:53;;;;;;;36.97;18.80;;;-1.90;99.90;;;;;;5092824;28;20250;-62
2024/01/10 08:45:21;;;;;;;39.05;18.55;;;-1.80;99.90;;;;;;5088198;28;20255;-62
2024/01/10 08:47:50;;;;;;;40.00;19.23;;;-1.80;99.90;;;;;;5087423;28;20259;-62
2024/01/10 08:50:18;;;;;;;38.20;19.20;;;-1.80;99.90;;;;;;5085007;28;20271;-62
2024/01/10 08:52:46;;;;;;;39.22;19.38;;;-1.90;99.90;;;;;;5091265;28;20204;-61
2024/01/10 08:55:14;;;;;;;38.97;18.73;;;-1.90;99.90;;;;;;5092658;28;20197;-62
2024/01/10 08:57:42;;;;;;;41.55;19.05;;;-1.80;99.90;;;;;;5091421;28;20243;-61
2024/01/10 09:00:12;;;;;;;35.92;19.08;;;-1.80;99.90;;;;;;5088881;28;20238;-61
2024/01/10 09:02:40;;;;;;;45.00;19.77;;;-1.70;99.90;;;;;;5091460;28;20212;-61
2024/01/10 09:05:10;;;;;;;45.25;18.48;;;-1.70;99.90;;;;;;5091288;28;20200;-61
2024/01/10 09:07:39;;;;;;;37.20;17.02;;;-1.60;99.90;;;;;;5090477;28;20205;-61
2024/01/10 09:10:08;;;;;;;40.17;19.05;;;-1.60;99.90;;;;;;5091251;28;20224;-61
2024/01/10 09:12:36;;;;;;;40.58;18.48;;;-1.60;99.90;;;;;;5090982;28;20209;-61
2024/01/10 09:15:05;;;;;;;36.40;17.70;;;-1.60;99.90;;;;;;5092279;28;20205;-62
2024/01/10 09:17:33;;;;;;;38.40;17.30;;;-1.50;99.90;;;;;;5091856;28;20229;-61
2024/01/10 09:20:02;;;;;;;38.70;18.63;;;-1.50;99.90;;;;;;5086754;28;20221;-61
2024/01/10 09:22:32;;;;;;;37.40;17.70;;;-1.50;99.90;;;;;;5086841;28;20236;-62
2024/01/10 09:25:03;;;;;;;40.05;18.85;;;-1.50;99.90;;;;;;5092669;28;20677;-61
2024/01/10 09:27:31;;;;;;;42.97;18.83;;;-1.50;99.90;;;;;;5091617;28;20228;-60
2024/01/10 09:30:00;;;;;;;38.75;18.80;;;-1.40;99.90;;;;;;5088591;28;20323;-61
2024/01/10 09:32:28;;;;;;;39.17;18.67;;;-1.40;99.90;;;;;;5089738;28;20204;-62
2024/01/10 09:34:57;;;;;;;45.28;18.50;;;-1.40;99.90;;;;;;5092316;28;20216;-62
2024/01/10 09:37:24;;;;;;;41.90;19.00;;;-1.30;99.90;;;;;;5091505;28;20204;-61
2024/01/10 09:39:54;;;;;;;39.60;18.25;;;-1.30;99.90;;;;;;5090676;28;20289;-61
2024/01/10 09:42:25;;;;;;;37.47;17.35;;;-1.20;99.90;;;;;;5090996;28;20677;-62
2024/01/10 09:44:53;;;;;;;39.03;18.35;;;-1.20;99.90;;;;;;5092476;28;20215;-61
2024/01/10 09:47:21;;;;;;;41.08;18.30;;;-1.20;99.90;;;;;;5092100;28;20220;-61
2024/01/10 09:49:49;;;;;;;40.25;17.48;;;-1.20;99.90;;;;;;5091168;28;20228;-60
2024/01/10 09:52:20;;;;;;;34.83;17.38;;;-1.10;99.90;;;;;;5091982;28;20200;-60
2024/01/10 09:54:48;;;;;;;41.40;19.48;;;-1.10;99.90;;;;;;5091968;28;20247;-60
2024/01/10 09:57:18;;;;;;;38.15;17.98;;;-1.10;99.90;;;;;;5091443;28;20224;-60
2024/01/10 09:59:47;;;;;;;40.25;19.20;;;-1.10;99.90;;;;;;5090883;28;20225;-60
2024/01/10 10:02:16;;;;;;;43.92;18.75;;;-1.00;99.90;;;;;;5083445;28;20253;-60
2024/01/10 10:04:44;;;;;;;38.40;18.58;;;-1.00;99.90;;;;;;5091646;28;20312;-60
2024/01/10 10:07:12;;;;;;;37.25;17.55;;;-0.90;99.90;;;;;;5089591;28;20697;-60
2024/01/10 10:09:41;;;;;;;37.47;17.70;;;-0.90;99.90;;;;;;5090651;28;20256;-60
2024/01/10 10:12:09;;;;;;;33.00;16.83;;;-0.90;99.90;;;;;;5090653;28;20222;-60
2024/01/10 10:14:38;;;;;;;35.42;17.63;;;-0.90;99.90;;;;;;5091955;28;20204;-60
2024/01/10 10:17:16;;;;;;;36.30;17.15;;;-0.90;99.90;;;;;;5091726;28;20204;-60
2024/01/10 10:19:45;;;;;;;34.45;17.42;;;-0.90;99.90;;;;;;5091013;28;20225;-60
2024/01/10 10:22:13;;;;;;;35.90;16.55;;;-0.90;99.90;;;;;;5091334;28;20268;-60
2024/01/10 10:24:44;;;;;;;36.90;16.90;;;-0.90;99.90;;;;;;5091391;28;20674;-60
2024/01/10 10:27:12;;;;;;;30.05;15.15;;;-0.90;99.90;;;;;;5091604;28;20274;-60
2024/01/10 10:29:42;;;;;;;33.97;17.77;;;-0.90;99.90;;;;;;5091338;28;20730;-60
2024/01/10 10:32:13;;;;;;;40.08;16.58;;;-0.80;99.90;;;;;;5091282;28;20322;-60
2024/01/10 10:34:43;;;;;;;31.08;15.20;;;-0.80;99.90;;;;;;5087137;28;20281;-60
2024/01/10 10:37:11;;;;;;;35.10;17.80;;;-0.70;99.90;;;;;;5091478;28;20201;-61
2024/01/10 10:39:39;;;;;;;31.80;16.35;;;-0.70;99.90;;;;;;5091639;28;20232;-61
2024/01/10 10:42:07;;;;;;;32.78;15.27;;;-0.70;99.90;;;;;;5091528;28;20619;-60
2024/01/10 10:44:36;;;;;;;37.28;17.35;;;-0.70;99.90;;;;;;5091895;28;20205;-61
2024/01/10 10:47:06;;;;;;;35.75;16.67;;;-0.60;99.90;;;;;;5090747;28;20224;-60
2024/01/10 10:49:44;;;;;;;37.22;16.17;;;-0.60;99.90;;;;;;5089877;28;20228;-60
2024/01/10 10:52:12;;;;;;;34.63;17.35;;;-0.50;99.90;;;;;;5090215;28;20240;-63
2024/01/10 10:54:40;;;;;;;33.80;16.30;;;-0.40;99.90;;;;;;5091415;28;20309;-61
2024/01/10 10:57:08;;;;;;;32.50;15.43;;;-0.40;99.90;;;;;;5091244;28;20196;-60
2024/01/10 10:59:36;;;;;;;32.20;15.55;;;-0.30;99.90;;;;;;5090985;28;20311;-61
2024/01/10 11:02:06;;;;;;;31.23;16.70;;;-0.20;99.90;;;;;;5091117;28;20666;-60
2024/01/10 11:04:34;;;;;;;36.22;17.05;;;-0.10;99.90;;;;;;5091646;28;20214;-60
2024/01/10 11:07:02;;;;;;;29.20;15.55;;;-0.10;99.90;;;;;;5091152;28;20232;-60
2024/01/10 11:09:30;;;;;;;33.90;15.98;;;0.00;99.90;;;;;;5090867;28;20232;-61
2024/01/10 11:12:05;;;;;;;35.72;17.40;;;0.10;99.90;;;;;;5090889;28;20247;-60
2024/01/10 11:14:39;;;;;;;40.95;17.75;;;0.20;99.90;;;;;;5091485;28;20738;-61
2024/01/10 11:17:39;;;;;;;35.78;16.00;;;0.30;99.90;;;;;;5090934;28;20293;-60
2024/01/10 11:20:15;;;;;;;38.17;16.73;;;0.40;99.90;;;;;;5090750;28;20231;-61
2024/01/10 11:23:03;;;;;;;36.78;16.55;;;0.50;99.90;;;;;;5094909;28;20302;-61
2024/01/10 11:25:32;;;;;;;36.97;17.30;;;0.60;99.90;;;;;;5095410;28;20257;-60
2024/01/10 11:28:04;;;;;;;37.38;16.85;;;0.70;99.90;;;;;;5094784;28;20315;-60
2024/01/10 11:30:35;;;;;;;35.97;17.17;;;0.70;99.90;;;;;;5094824;28;20273;-61
2024/01/10 11:33:18;;;;;;;38.63;17.45;;;0.80;99.90;;;;;;5094576;28;20677;-61
2024/01/10 11:36:09;;;;;;;33.55;16.27;;;0.80;99.90;;;;;;5092426;28;20204;-60
2024/01/10 11:38:44;;;;;;;32.83;15.43;;;0.80;99.90;;;;;;5094155;28;20262;-62
2024/01/10 11:41:12;;;;;;;29.48;13.77;;;0.80;99.90;;;;;;5093565;28;20291;-62
2024/01/10 11:43:40;;;;;;;31.70;15.25;;;0.90;99.90;;;;;;5094979;28;20235;-61
2024/01/10 11:46:08;;;;;;;36.75;15.80;;;0.90;99.90;;;;;;5093114;28;20206;-62
2024/01/10 11:48:38;;;;;;;29.90;15.05;;;0.90;99.90;;;;;;5093525;28;20224;-61
2024/01/10 11:51:07;;;;;;;35.60;15.15;;;0.90;99.90;;;;;;5093741;28;20307;-61
2024/01/10 11:53:42;;;;;;;32.53;16.15;;;0.90;99.90;;;;;;5085884;28;20598;-61
2024/01/10 11:56:11;;;;;;;28.95;14.98;;;0.90;99.90;;;;;;5094568;28;20212;-61
2024/01/10 11:58:56;;;;;;;26.90;14.02;;;0.90;99.90;;;;;;5094080;28;20231;-60
2024/01/10 12:01:24;;;;;;;27.95;13.85;;;0.90;99.90;;;;;;5094411;28;20287;-61
2024/01/10 12:03:54;;;;;;;33.42;14.65;;;1.00;99.90;;;;;;5094296;28;20288;-61
2024/01/10 12:06:41;;;;;;;30.42;14.27;;;1.00;99.90;;;;;;5093532;28;20604;-61
2024/01/10 12:09:09;;;;;;;31.50;15.98;;;1.10;99.90;;;;;;5093228;28;20229;-61
2024/01/10 12:11:39;;;;;;;34.50;15.20;;;1.10;99.90;;;;;;5093895;28;20212;-61
2024/01/10 12:14:07;;;;;;;30.83;15.52;;;1.10;99.90;;;;;;5093702;28;20255;-60
2024/01/10 12:16:35;;;;;;;34.03;16.02;;;1.10;99.90;;;;;;5092781;28;20291;-61
2024/01/10 12:19:05;;;;;;;34.22;15.90;;;1.20;99.90;;;;;;5093847;28;20282;-61
2024/01/10 12:21:33;;;;;;;29.55;14.82;;;1.40;99.90;;;;;;5094111;28;20216;-61
2024/01/10 12:24:01;;;;;;;33.60;14.70;;;1.40;99.90;;;;;;5094065;28;20204;-61
2024/01/10 12:26:29;;;;;;;31.10;14.85;;;1.50;99.90;;;;;;5093445;28;20252;-61
2024/01/10 12:28:58;;;;;;;27.88;14.30;;;1.50;99.90;;;;;;5093249;28;20229;-61
2024/01/10 12:31:28;;;;;;;30.90;14.15;;;1.60;99.90;;;;;;5093574;28;20204;-61
2024/01/10 12:33:56;;;;;;;28.38;13.43;;;1.70;99.90;;;;;;5090208;28;20211;-61
2024/01/10 12:36:25;;;;;;;29.58;13.85;;;1.90;99.90;;;;;;5092018;28;20196;-61